createdAt,value
2023-08-13T00:00:43.086Z,16.64
2023-08-13T00:03:09.730Z,16.88
2023-08-13T00:05:36.488Z,16.93
2023-08-13T00:08:02.925Z,16.96
2023-08-13T00:10:29.395Z,16.95
2023-08-13T00:12:55.906Z,16.95
2023-08-13T00:15:22.620Z,16.95
2023-08-13T00:17:49.083Z,16.95
2023-08-13T00:20:16.202Z,16.96
2023-08-13T00:22:42.892Z,16.87
2023-08-13T00:25:09.711Z,16.82
2023-08-13T00:27:36.185Z,16.93
2023-08-13T00:30:02.687Z,16.73
2023-08-13T00:32:29.174Z,16.81
2023-08-13T00:34:55.854Z,16.92
2023-08-13T00:37:22.356Z,16.90
2023-08-13T00:39:48.837Z,16.63
2023-08-13T00:42:15.583Z,16.87
2023-08-13T00:44:42.280Z,16.96
2023-08-13T00:47:10.503Z,16.46
2023-08-13T00:49:36.984Z,16.96
2023-08-13T00:52:03.607Z,16.77
2023-08-13T00:54:30.918Z,16.65
2023-08-13T00:56:57.640Z,16.78
2023-08-13T00:59:25.060Z,16.96
2023-08-13T01:01:51.991Z,16.97
2023-08-13T01:04:18.830Z,16.69
2023-08-13T01:07:12.978Z,16.82
2023-08-13T01:09:57.494Z,17.03
2023-08-13T01:12:38.703Z,16.86
2023-08-13T01:15:12.679Z,16.75
2023-08-13T01:17:40.834Z,16.93
2023-08-13T01:20:10.542Z,16.92
2023-08-13T01:22:46.698Z,16.84
2023-08-13T01:25:14.594Z,16.94
2023-08-13T01:27:57.907Z,16.70
2023-08-13T01:30:34.205Z,16.89
2023-08-13T01:33:04.478Z,16.75
2023-08-13T01:35:32.165Z,16.94
2023-08-13T01:38:00.827Z,16.68
2023-08-13T01:40:27.961Z,16.74
2023-08-13T01:42:54.597Z,16.65
2023-08-13T01:45:21.150Z,16.73
2023-08-13T01:47:48.477Z,16.70
2023-08-13T01:50:15.096Z,16.78
2023-08-13T01:52:41.529Z,16.82
2023-08-13T01:55:08.787Z,16.60
2023-08-13T01:57:35.630Z,16.91
2023-08-13T02:00:02.123Z,16.96
2023-08-13T02:02:28.758Z,17.00
2023-08-13T02:04:55.352Z,16.57
2023-08-13T02:07:21.837Z,17.05
2023-08-13T02:09:48.334Z,17.09
2023-08-13T02:12:14.867Z,17.00
2023-08-13T02:14:41.714Z,16.86
2023-08-13T02:17:13.756Z,17.17
2023-08-13T02:19:41.254Z,17.08
2023-08-13T02:22:08.657Z,17.10
2023-08-13T02:24:35.132Z,17.32
2023-08-13T02:27:01.609Z,17.13
2023-08-13T02:29:28.274Z,17.26
2023-08-13T02:31:54.820Z,17.27
2023-08-13T02:34:23.523Z,17.38
2023-08-13T02:36:50.153Z,17.38
2023-08-13T02:39:16.575Z,17.14
2023-08-13T02:41:43.040Z,17.25
2023-08-13T02:44:09.554Z,17.07
2023-08-13T02:46:36.109Z,17.38
2023-08-13T02:49:02.650Z,17.39
2023-08-13T02:51:29.122Z,17.26
2023-08-13T02:53:55.708Z,17.29
2023-08-13T02:56:22.185Z,16.94
2023-08-13T02:58:48.676Z,17.17
2023-08-13T03:01:15.235Z,17.22
2023-08-13T03:03:52.084Z,17.06
2023-08-13T03:06:23.584Z,17.14
2023-08-13T03:08:50.161Z,16.78
2023-08-13T03:11:16.736Z,17.00
2023-08-13T03:13:43.635Z,16.94
2023-08-13T03:16:10.294Z,16.62
2023-08-13T03:18:37.105Z,16.81
2023-08-13T03:21:03.617Z,16.74
2023-08-13T03:23:30.475Z,16.68
2023-08-13T03:25:57.131Z,16.57
2023-08-13T03:28:23.966Z,16.40
2023-08-13T03:30:50.443Z,16.13
2023-08-13T03:33:16.897Z,16.24
2023-08-13T03:35:43.975Z,16.13
2023-08-13T03:38:10.656Z,16.42
2023-08-13T03:40:40.960Z,16.40
2023-08-13T03:43:07.512Z,16.19
2023-08-13T03:45:34.048Z,16.18
2023-08-13T03:48:00.643Z,16.33
2023-08-13T03:50:27.186Z,16.31
2023-08-13T03:52:53.644Z,16.27
2023-08-13T03:55:20.088Z,16.25
2023-08-13T03:57:46.577Z,15.97
2023-08-13T04:00:13.619Z,15.88
2023-08-13T04:02:40.721Z,15.91
2023-08-13T04:05:07.992Z,16.06
2023-08-13T04:07:34.467Z,16.17
2023-08-13T04:10:00.948Z,16.15
2023-08-13T04:12:27.433Z,16.12
2023-08-13T04:14:53.859Z,16.16
2023-08-13T04:17:20.321Z,16.00
2023-08-13T04:19:46.782Z,15.91
2023-08-13T04:22:13.969Z,16.17
2023-08-13T04:24:41.076Z,16.19
2023-08-13T04:27:07.600Z,16.18
2023-08-13T04:29:34.115Z,16.05
2023-08-13T04:32:00.603Z,16.02
2023-08-13T04:34:27.173Z,15.88
2023-08-13T04:36:53.632Z,16.35
2023-08-13T04:39:20.118Z,16.41
2023-08-13T04:41:46.625Z,15.98
2023-08-13T04:44:13.096Z,16.19
2023-08-13T04:46:39.771Z,16.17
2023-08-13T04:49:06.563Z,16.45
2023-08-13T04:51:32.995Z,16.03
2023-08-13T04:53:59.468Z,16.59
2023-08-13T04:56:25.954Z,16.58
2023-08-13T04:58:52.535Z,16.44
2023-08-13T05:01:19.120Z,16.76
2023-08-13T05:03:45.908Z,16.99
2023-08-13T05:06:12.447Z,17.17
2023-08-13T05:08:38.999Z,17.16
2023-08-13T05:11:05.902Z,17.07
2023-08-13T05:13:32.390Z,17.39
2023-08-13T05:15:58.917Z,17.27
2023-08-13T05:19:11.901Z,17.14
2023-08-13T05:21:43.565Z,16.09
2023-08-13T05:24:10.061Z,16.75
2023-08-13T05:26:36.673Z,17.79
2023-08-13T05:29:04.271Z,17.86
2023-08-13T05:31:31.326Z,17.90
2023-08-13T05:34:01.020Z,18.01
2023-08-13T05:36:27.668Z,18.08
2023-08-13T05:38:54.234Z,17.95
2023-08-13T05:41:20.791Z,18.22
2023-08-13T05:43:47.289Z,18.04
2023-08-13T05:46:13.946Z,18.40
2023-08-13T05:48:40.759Z,18.25
2023-08-13T05:51:07.261Z,18.50
2023-08-13T05:53:33.729Z,18.60
2023-08-13T05:56:01.263Z,18.72
2023-08-13T05:58:27.776Z,18.82
2023-08-13T06:00:54.249Z,18.91
2023-08-13T06:03:20.857Z,19.00
2023-08-13T06:05:48.624Z,19.09
2023-08-13T06:08:15.235Z,18.91
2023-08-13T06:10:41.815Z,19.28
2023-08-13T06:13:08.313Z,19.20
2023-08-13T06:15:34.778Z,19.35
2023-08-13T06:18:01.344Z,19.48
2023-08-13T06:20:27.973Z,19.52
2023-08-13T06:22:54.660Z,19.54
2023-08-13T06:25:21.267Z,19.50
2023-08-13T06:27:47.742Z,19.47
2023-08-13T06:30:14.273Z,19.52
2023-08-13T06:32:41.066Z,19.56
2023-08-13T06:35:07.905Z,19.58
2023-08-13T06:37:38.982Z,19.71
2023-08-13T06:40:13.777Z,19.79
2023-08-13T06:42:40.229Z,19.85
2023-08-13T06:45:07.551Z,19.90
2023-08-13T06:47:34.109Z,19.67
2023-08-13T06:50:00.611Z,20.07
2023-08-13T06:52:27.238Z,20.12
2023-08-13T06:54:53.736Z,20.22
2023-08-13T06:57:20.199Z,20.27
2023-08-13T06:59:46.760Z,20.20
2023-08-13T07:02:13.467Z,20.44
2023-08-13T07:04:40.277Z,20.52
2023-08-13T07:07:07.229Z,20.43
2023-08-13T07:09:35.066Z,20.67
2023-08-13T07:12:02.075Z,20.91
2023-08-13T07:14:28.643Z,21.16
2023-08-13T07:16:55.060Z,21.29
2023-08-13T07:19:21.679Z,21.23
2023-08-13T07:21:48.140Z,21.45
2023-08-13T07:24:14.678Z,21.52
2023-08-13T07:26:41.186Z,21.31
2023-08-13T07:29:08.662Z,21.62
2023-08-13T07:31:38.979Z,21.57
2023-08-13T07:34:05.946Z,21.74
2023-08-13T07:36:32.779Z,21.75
2023-08-13T07:38:59.380Z,21.84
2023-08-13T07:41:26.209Z,21.88
2023-08-13T07:43:53.304Z,21.71
2023-08-13T07:46:20.381Z,22.05
2023-08-13T07:48:46.936Z,22.02
2023-08-13T07:51:13.428Z,21.84
2023-08-13T07:53:39.947Z,22.21
2023-08-13T07:56:06.533Z,22.31
2023-08-13T07:58:33.146Z,22.05
2023-08-13T08:00:59.683Z,22.57
2023-08-13T08:03:26.354Z,22.74
2023-08-13T08:05:54.056Z,22.79
2023-08-13T08:08:20.594Z,23.03
2023-08-13T08:10:47.070Z,22.99
2023-08-13T08:13:13.852Z,23.11
2023-08-13T08:15:40.701Z,22.82
2023-08-13T08:18:07.695Z,22.82
2023-08-13T08:20:34.397Z,23.09
2023-08-13T08:23:00.973Z,23.04
2023-08-13T08:25:27.796Z,23.25
2023-08-13T08:27:54.558Z,23.31
2023-08-13T08:30:21.299Z,23.25
2023-08-13T08:32:48.112Z,23.04
2023-08-13T08:35:15.256Z,23.07
2023-08-13T08:37:41.789Z,23.31
2023-08-13T08:40:08.823Z,23.24
2023-08-13T08:42:37.797Z,23.39
2023-08-13T08:45:05.664Z,23.35
2023-08-13T08:47:34.698Z,23.19
2023-08-13T08:50:05.092Z,23.54
2023-08-13T08:52:35.453Z,23.37
2023-08-13T08:55:04.020Z,23.54
2023-08-13T08:57:30.551Z,23.50
2023-08-13T08:59:57.122Z,23.20
2023-08-13T09:02:23.968Z,23.57
2023-08-13T09:04:50.598Z,23.49
2023-08-13T09:07:17.092Z,23.75
2023-08-13T09:09:45.460Z,23.82
2023-08-13T09:12:11.998Z,23.84
2023-08-13T09:14:38.600Z,24.01
2023-08-13T09:17:05.221Z,24.10
2023-08-13T09:19:33.446Z,24.05
2023-08-13T09:22:04.572Z,24.38
2023-08-13T09:24:34.013Z,24.51
2023-08-13T09:27:01.810Z,24.69
2023-08-13T09:29:30.468Z,24.88
2023-08-13T09:32:00.886Z,25.09
2023-08-13T09:34:28.765Z,25.31
2023-08-13T09:36:56.817Z,25.48
2023-08-13T09:39:24.829Z,25.72
2023-08-13T09:41:52.688Z,25.91
2023-08-13T09:44:21.334Z,26.13
2023-08-13T09:47:01.989Z,26.42
2023-08-13T09:49:31.603Z,26.66
2023-08-13T09:52:02.336Z,27.11
2023-08-13T09:54:37.847Z,26.69
2023-08-13T09:57:07.962Z,27.23
2023-08-13T09:59:36.061Z,27.34
2023-08-13T10:02:07.704Z,27.37
2023-08-13T10:04:39.229Z,27.44
2023-08-13T10:07:06.823Z,27.40
2023-08-13T10:09:34.819Z,27.48
2023-08-13T10:12:02.508Z,27.57
2023-08-13T10:14:29.940Z,27.63
2023-08-13T10:16:56.560Z,27.80
2023-08-13T10:19:35.524Z,27.98
2023-08-13T10:22:02.603Z,27.98
2023-08-13T10:24:30.361Z,28.20
2023-08-13T10:26:59.254Z,28.04
2023-08-13T10:29:35.006Z,28.39
2023-08-13T10:32:10.924Z,28.52
2023-08-13T10:34:41.032Z,28.49
2023-08-13T10:37:19.550Z,28.34
2023-08-13T10:39:48.076Z,28.20
2023-08-13T10:42:38.968Z,28.20
2023-08-13T10:45:10.979Z,27.79
2023-08-13T10:47:48.496Z,27.96
2023-08-13T10:50:26.902Z,28.16
2023-08-13T10:52:55.724Z,28.18
2023-08-13T10:55:25.938Z,28.08
2023-08-13T10:57:54.008Z,28.41
2023-08-13T11:00:25.466Z,28.54
2023-08-13T11:02:53.776Z,28.58
2023-08-13T11:05:22.200Z,28.63
2023-08-13T11:07:48.973Z,28.65
2023-08-13T11:10:20.355Z,28.67
2023-08-13T11:12:48.710Z,28.61
2023-08-13T11:15:16.622Z,28.64
2023-08-13T11:17:48.162Z,28.86
2023-08-13T11:20:18.367Z,28.78
2023-08-13T11:22:45.101Z,29.09
2023-08-13T11:25:12.057Z,29.35
2023-08-13T11:27:39.819Z,29.51
2023-08-13T11:30:09.464Z,29.63
2023-08-13T11:32:40.009Z,29.52
2023-08-13T11:35:10.749Z,29.61
2023-08-13T11:37:38.412Z,29.64
2023-08-13T11:40:07.446Z,29.50
2023-08-13T11:42:34.366Z,29.20
2023-08-13T11:45:04.428Z,29.35
2023-08-13T11:47:31.002Z,29.29
2023-08-13T11:50:00.111Z,29.22
2023-08-13T11:52:26.770Z,29.24
2023-08-13T11:54:53.525Z,29.27
2023-08-13T11:57:21.189Z,29.25
2023-08-13T11:59:49.947Z,29.25
2023-08-13T12:02:19.247Z,29.22
2023-08-13T12:04:48.204Z,29.39
2023-08-13T12:07:14.819Z,29.34
2023-08-13T12:09:41.337Z,29.37
2023-08-13T12:12:08.063Z,29.34
2023-08-13T12:14:42.721Z,29.36
2023-08-13T12:17:09.154Z,29.33
2023-08-13T12:19:35.640Z,29.27
2023-08-13T12:22:02.101Z,29.28
2023-08-13T12:24:28.647Z,29.36
2023-08-13T12:26:55.251Z,29.49
2023-08-13T12:29:21.769Z,29.54
2023-08-13T12:31:48.441Z,29.39
2023-08-13T12:34:14.866Z,29.48
2023-08-13T12:36:41.326Z,29.48
2023-08-13T12:39:07.888Z,29.34
2023-08-13T12:41:39.835Z,29.20
2023-08-13T12:44:08.333Z,29.06
2023-08-13T12:46:34.850Z,28.91
2023-08-13T12:49:01.392Z,28.86
2023-08-13T12:51:28.035Z,28.76
2023-08-13T12:53:54.472Z,28.67
2023-08-13T12:56:21.805Z,28.48
2023-08-13T12:58:49.510Z,28.57
2023-08-13T13:01:16.011Z,28.23
2023-08-13T13:03:42.553Z,28.40
2023-08-13T13:06:09.022Z,28.34
2023-08-13T13:08:35.466Z,28.41
2023-08-13T13:11:02.596Z,28.36
2023-08-13T13:13:29.537Z,28.64
2023-08-13T13:15:56.161Z,28.76
2023-08-13T13:18:22.805Z,28.57
2023-08-13T13:20:49.544Z,28.71
2023-08-13T13:23:16.017Z,28.65
2023-08-13T13:25:42.476Z,28.83
2023-08-13T13:28:09.928Z,28.78
2023-08-13T13:30:36.433Z,28.78
2023-08-13T13:33:03.444Z,28.74
2023-08-13T13:35:30.075Z,28.83
2023-08-13T13:37:57.447Z,28.83
2023-08-13T13:40:25.916Z,28.90
2023-08-13T13:42:53.185Z,28.97
2023-08-13T13:45:20.448Z,28.96
2023-08-13T13:47:47.329Z,28.95
2023-08-13T13:50:16.994Z,29.05
2023-08-13T13:52:43.870Z,29.26
2023-08-13T13:55:10.401Z,28.87
2023-08-13T13:57:37.318Z,28.66
2023-08-13T14:00:07.908Z,28.71
2023-08-13T14:02:35.197Z,28.71
2023-08-13T14:05:02.385Z,28.57
2023-08-13T14:07:28.862Z,28.84
2023-08-13T14:09:55.360Z,28.84
2023-08-13T14:12:22.276Z,28.87
2023-08-13T14:14:48.742Z,29.01
2023-08-13T14:17:15.265Z,29.10
2023-08-13T14:19:43.098Z,29.19
2023-08-13T14:22:09.924Z,29.18
2023-08-13T14:24:36.845Z,29.29
2023-08-13T14:27:03.296Z,29.20
2023-08-13T14:29:30.379Z,29.36
2023-08-13T14:31:57.005Z,29.38
2023-08-13T14:34:23.582Z,29.18
2023-08-13T14:36:50.038Z,29.33
2023-08-13T14:39:16.857Z,29.47
2023-08-13T14:41:43.389Z,29.38
2023-08-13T14:44:10.080Z,29.50
2023-08-13T14:46:36.723Z,29.56
2023-08-13T14:49:03.301Z,29.70
2023-08-13T14:51:30.105Z,29.82
2023-08-13T14:53:57.050Z,29.85
2023-08-13T14:56:23.749Z,29.83
2023-08-13T14:58:50.965Z,29.81
2023-08-13T15:01:17.687Z,29.76
2023-08-13T15:03:44.366Z,29.80
2023-08-13T15:06:11.083Z,29.80
2023-08-13T15:08:37.827Z,29.74
2023-08-13T15:11:04.429Z,29.84
2023-08-13T15:13:31.037Z,29.90
2023-08-13T15:15:57.796Z,29.58
2023-08-13T15:18:24.410Z,29.60
2023-08-13T15:20:51.354Z,29.95
2023-08-13T15:23:19.114Z,29.70
2023-08-13T15:28:19.986Z,29.78
2023-08-13T15:30:46.521Z,29.68
2023-08-13T15:33:13.118Z,29.70
2023-08-13T15:35:51.562Z,29.69
2023-08-13T15:38:20.354Z,29.55
2023-08-13T15:40:49.001Z,29.41
2023-08-13T15:43:15.495Z,29.22
2023-08-13T15:45:41.991Z,29.03
2023-08-13T15:48:08.538Z,28.92
2023-08-13T15:50:35.654Z,28.77
2023-08-13T15:53:03.323Z,28.62
2023-08-13T15:55:30.059Z,28.45
2023-08-13T15:57:56.554Z,28.42
2023-08-13T16:00:23.169Z,28.37
2023-08-13T16:02:50.818Z,28.16
2023-08-13T16:05:17.548Z,28.30
2023-08-13T16:07:45.529Z,28.22
2023-08-13T16:10:12.025Z,28.29
2023-08-13T16:12:38.503Z,28.26
2023-08-13T16:15:10.996Z,28.25
2023-08-13T16:17:41.147Z,28.23
2023-08-13T16:20:12.657Z,28.16
2023-08-13T16:22:42.268Z,28.08
2023-08-13T16:25:09.931Z,28.00
2023-08-13T16:27:36.757Z,27.91
2023-08-13T16:30:04.789Z,27.76
2023-08-13T16:32:31.564Z,27.29
2023-08-13T16:34:58.120Z,27.46
2023-08-13T16:37:24.566Z,27.60
2023-08-13T16:39:51.044Z,27.16
2023-08-13T16:42:18.109Z,27.57
2023-08-13T16:44:44.891Z,27.55
2023-08-13T16:47:11.374Z,27.59
2023-08-13T16:49:37.957Z,27.49
2023-08-13T16:52:04.698Z,27.60
2023-08-13T16:54:31.092Z,27.61
2023-08-13T16:56:57.619Z,27.61
2023-08-13T16:59:24.162Z,27.50
2023-08-13T17:01:50.650Z,27.54
2023-08-13T17:04:17.158Z,27.48
2023-08-13T17:06:43.847Z,27.32
2023-08-13T17:09:10.543Z,27.23
2023-08-13T17:11:36.980Z,27.37
2023-08-13T17:14:03.545Z,27.14
2023-08-13T17:16:30.119Z,27.29
2023-08-13T17:18:56.654Z,27.03
2023-08-13T17:21:23.123Z,27.22
2023-08-13T17:23:49.539Z,27.12
2023-08-13T17:26:16.039Z,26.84
2023-08-13T17:28:42.759Z,26.73
2023-08-13T17:31:09.253Z,27.02
2023-08-13T17:33:35.760Z,26.98
2023-08-13T17:36:02.289Z,26.99
2023-08-13T17:38:28.760Z,26.97
2023-08-13T17:40:55.294Z,27.02
2023-08-13T17:43:21.876Z,27.04
2023-08-13T17:45:48.428Z,27.14
2023-08-13T17:48:16.496Z,27.27
2023-08-13T17:50:44.475Z,27.37
2023-08-13T17:53:12.641Z,27.46
2023-08-13T17:55:39.092Z,27.54
2023-08-13T17:58:05.563Z,27.74
2023-08-13T18:00:32.064Z,27.79
2023-08-13T18:02:58.655Z,27.84
2023-08-13T18:05:25.561Z,27.85
2023-08-13T18:07:58.370Z,27.79
2023-08-13T18:10:31.025Z,27.67
2023-08-13T18:12:57.561Z,27.49
2023-08-13T18:15:24.513Z,27.20
2023-08-13T18:17:51.284Z,26.98
2023-08-13T18:20:18.268Z,26.86
2023-08-13T18:22:45.041Z,26.42
2023-08-13T18:25:12.748Z,26.39
2023-08-13T18:27:41.081Z,26.15
2023-08-13T18:30:08.227Z,25.92
2023-08-13T18:32:34.828Z,25.68
2023-08-13T18:35:01.429Z,25.45
2023-08-13T18:37:27.921Z,25.19
2023-08-13T18:39:58.078Z,25.00
2023-08-13T18:42:24.641Z,24.75
2023-08-13T18:44:51.321Z,24.23
2023-08-13T18:47:17.847Z,24.30
2023-08-13T18:49:44.368Z,24.00
2023-08-13T18:52:10.995Z,23.87
2023-08-13T18:54:37.463Z,23.48
2023-08-13T18:57:04.076Z,23.49
2023-08-13T18:59:30.854Z,23.30
2023-08-13T19:01:57.601Z,23.12
2023-08-13T19:04:24.131Z,22.94
2023-08-13T19:06:50.642Z,22.75
2023-08-13T19:09:17.087Z,22.60
2023-08-13T19:11:43.684Z,22.42
2023-08-13T19:14:11.489Z,22.23
2023-08-13T19:16:38.650Z,22.12
2023-08-13T19:19:05.931Z,22.01
2023-08-13T19:21:32.627Z,21.85
2023-08-13T19:23:59.098Z,21.71
2023-08-13T19:26:26.091Z,21.45
2023-08-13T19:28:53.222Z,21.47
2023-08-13T19:31:19.762Z,21.37
2023-08-13T19:33:46.216Z,21.25
2023-08-13T19:36:13.761Z,21.06
2023-08-13T19:38:40.731Z,21.03
2023-08-13T19:41:07.364Z,20.94
2023-08-13T19:43:34.048Z,20.74
2023-08-13T19:46:00.825Z,20.37
2023-08-13T19:48:27.316Z,20.65
2023-08-13T19:50:54.456Z,20.20
2023-08-13T19:53:21.680Z,20.41
2023-08-13T19:55:50.497Z,20.40
2023-08-13T19:58:17.859Z,20.31
2023-08-13T20:00:44.526Z,20.25
2023-08-13T20:03:11.594Z,20.12
2023-08-13T20:05:38.167Z,19.99
2023-08-13T20:08:05.211Z,20.02
2023-08-13T20:10:32.941Z,19.94
2023-08-13T20:12:59.929Z,19.87
2023-08-13T20:15:27.096Z,19.74
2023-08-13T20:17:56.927Z,19.78
2023-08-13T20:20:23.433Z,19.74
2023-08-13T20:22:49.975Z,19.68
2023-08-13T20:25:17.048Z,19.62
2023-08-13T20:27:43.490Z,19.56
2023-08-13T20:30:10.368Z,19.49
2023-08-13T20:32:37.322Z,19.48
2023-08-13T20:35:04.514Z,19.42
2023-08-13T20:37:31.490Z,19.37
2023-08-13T20:39:58.788Z,19.33
2023-08-13T20:42:26.249Z,19.26
2023-08-13T20:44:52.894Z,19.02
2023-08-13T20:47:19.370Z,19.12
2023-08-13T20:49:46.047Z,19.14
2023-08-13T20:52:12.620Z,19.10
2023-08-13T20:54:39.076Z,19.06
2023-08-13T20:57:05.806Z,19.00
2023-08-13T20:59:32.275Z,18.94
2023-08-13T21:01:58.721Z,18.91
2023-08-13T21:04:25.213Z,18.66
2023-08-13T21:06:51.728Z,18.88
2023-08-13T21:09:18.274Z,18.85
2023-08-13T21:11:45.010Z,18.65
2023-08-13T21:14:11.501Z,18.80
2023-08-13T21:16:37.987Z,18.76
2023-08-13T21:19:04.452Z,18.54
2023-08-13T21:21:30.918Z,18.51
2023-08-13T21:23:57.440Z,18.67
2023-08-13T21:26:25.169Z,18.62
2023-08-13T21:28:51.991Z,18.61
2023-08-13T21:31:18.615Z,18.55
2023-08-13T21:33:45.069Z,18.57
2023-08-13T21:36:11.581Z,18.40
2023-08-13T21:38:38.066Z,18.46
2023-08-13T21:41:04.861Z,18.46
2023-08-13T21:43:31.326Z,18.44
2023-08-13T21:45:57.787Z,18.38
2023-08-13T21:48:24.254Z,18.27
2023-08-13T21:50:50.704Z,18.36
2023-08-13T21:53:17.216Z,18.34
2023-08-13T21:55:43.851Z,18.30
2023-08-13T21:58:10.347Z,18.10
2023-08-13T22:00:36.831Z,18.26
2023-08-13T22:03:04.230Z,18.23
2023-08-13T22:05:31.797Z,18.11
2023-08-13T22:07:58.235Z,18.15
2023-08-13T22:10:24.689Z,17.95
2023-08-13T22:12:51.128Z,18.16
2023-08-13T22:15:17.605Z,18.14
2023-08-13T22:17:44.094Z,17.95
2023-08-13T22:20:10.778Z,18.07
2023-08-13T22:22:37.276Z,18.03
2023-08-13T22:25:05.243Z,18.06
2023-08-13T22:27:31.829Z,17.87
2023-08-13T22:29:58.386Z,17.97
2023-08-13T22:32:25.103Z,17.99
2023-08-13T22:34:52.194Z,17.73
2023-08-13T22:37:18.731Z,17.90
2023-08-13T22:39:45.170Z,17.91
2023-08-13T22:42:11.652Z,17.88
2023-08-13T22:44:38.140Z,17.84
2023-08-13T22:47:04.844Z,17.81
2023-08-13T22:49:32.609Z,17.83
2023-08-13T22:51:59.205Z,17.81
2023-08-13T22:54:25.960Z,17.80
2023-08-13T22:56:52.563Z,17.81
2023-08-13T22:59:19.079Z,17.80
2023-08-13T23:01:45.649Z,17.77
2023-08-13T23:04:12.662Z,17.73
2023-08-13T23:06:39.309Z,17.72
2023-08-13T23:09:07.423Z,17.67
2023-08-13T23:11:33.944Z,17.71
2023-08-13T23:14:00.591Z,17.74
2023-08-13T23:16:27.240Z,17.70
2023-08-13T23:18:53.689Z,17.71
2023-08-13T23:21:20.144Z,17.74
2023-08-13T23:23:46.606Z,17.72
2023-08-13T23:26:13.132Z,17.75
2023-08-13T23:28:40.926Z,17.73
2023-08-13T23:31:07.464Z,17.46
2023-08-13T23:33:33.993Z,17.69
2023-08-13T23:36:00.427Z,17.69
2023-08-13T23:38:26.924Z,17.65
2023-08-13T23:40:53.406Z,17.64
2023-08-13T23:43:19.851Z,17.63
2023-08-13T23:45:48.531Z,17.38
2023-08-13T23:48:15.239Z,17.34
2023-08-13T23:50:54.060Z,17.54
2023-08-13T23:53:22.060Z,17.65
2023-08-13T23:55:48.523Z,17.53
2023-08-13T23:58:15.064Z,17.46
